Cedarfalls, Iowa
Current Conditions -  °F | °C
As of 5:54 PM on Thursday 18 Dec 2014 (Local Time) from KALO Reporting Station
Overcast Overcast  
Wind Chill: 17°   Ceiling: 5500
Heat Index: 23°   Visibility: 10mi
Dew Point: 18°   Wind: 5mph
Humidity: 81%   Direction: 340°NNW
Pressure: 30.26"   Gusts: NA
Location:  42.5035°N, 92.4936°W
Report Text: KALO 182354Z AUTO 34004KT 10SM FEW018 OVC055 M05/M08 A3026 RMK AO2 SLP264 T10501078 11039 21061 53006
Loading
Personal Weather Stations






























Interactive Weather Map New forecast layout! Learn more

10-Day Weather Forecast

Advertisements
Track Severe Weather on mobile